sensor_id;sensor_type;location;lat;lon;timestamp;P1;durP1;ratioP1;P2;durP2;ratioP2
77022;SDS011;65952;51.440;-2.054;2023-02-22T00:01:51;46.70;;;21.05;;
77022;SDS011;65952;51.440;-2.054;2023-02-22T00:04:34;51.72;;;22.60;;
77022;SDS011;65952;51.440;-2.054;2023-02-22T00:07:05;48.17;;;22.08;;
77022;SDS011;65952;51.440;-2.054;2023-02-22T00:09:32;49.80;;;22.13;;
77022;SDS011;65952;51.440;-2.054;2023-02-22T00:11:57;46.47;;;20.30;;
77022;SDS011;65952;51.440;-2.054;2023-02-22T00:14:23;49.63;;;20.50;;
77022;SDS011;65952;51.440;-2.054;2023-02-22T00:16:51;48.90;;;20.98;;
77022;SDS011;65952;51.440;-2.054;2023-02-22T00:19:17;47.75;;;21.23;;
77022;SDS011;65952;51.440;-2.054;2023-02-22T00:21:43;49.83;;;21.42;;
77022;SDS011;65952;51.440;-2.054;2023-02-22T00:24:08;47.33;;;21.20;;
77022;SDS011;65952;51.440;-2.054;2023-02-22T00:26:47;47.97;;;19.92;;
77022;SDS011;65952;51.440;-2.054;2023-02-22T00:29:16;49.40;;;20.55;;
77022;SDS011;65952;51.440;-2.054;2023-02-22T00:31:42;44.58;;;20.13;;
77022;SDS011;65952;51.440;-2.054;2023-02-22T00:34:07;43.70;;;20.77;;
77022;SDS011;65952;51.440;-2.054;2023-02-22T00:36:33;45.17;;;19.90;;
77022;SDS011;65952;51.440;-2.054;2023-02-22T00:38:58;46.22;;;19.90;;
77022;SDS011;65952;51.440;-2.054;2023-02-22T00:41:23;39.20;;;17.50;;
77022;SDS011;65952;51.440;-2.054;2023-02-22T00:43:49;48.55;;;20.77;;
77022;SDS011;65952;51.440;-2.054;2023-02-22T00:46:14;48.50;;;19.58;;
77022;SDS011;65952;51.440;-2.054;2023-02-22T00:48:40;47.08;;;20.27;;
77022;SDS011;65952;51.440;-2.054;2023-02-22T00:51:05;49.88;;;22.23;;
77022;SDS011;65952;51.440;-2.054;2023-02-22T00:53:30;45.30;;;19.80;;
77022;SDS011;65952;51.440;-2.054;2023-02-22T00:55:56;46.55;;;19.55;;
77022;SDS011;65952;51.440;-2.054;2023-02-22T00:58:21;46.85;;;20.08;;
77022;SDS011;65952;51.440;-2.054;2023-02-22T01:00:48;40.03;;;18.00;;
77022;SDS011;65952;51.440;-2.054;2023-02-22T01:03:15;42.35;;;18.60;;
77022;SDS011;65952;51.440;-2.054;2023-02-22T01:05:42;42.05;;;18.33;;
77022;SDS011;65952;51.440;-2.054;2023-02-22T01:08:08;46.13;;;19.48;;
77022;SDS011;65952;51.440;-2.054;2023-02-22T01:10:35;39.50;;;17.50;;
77022;SDS011;65952;51.440;-2.054;2023-02-22T01:13:02;38.80;;;17.48;;
77022;SDS011;65952;51.440;-2.054;2023-02-22T01:15:32;42.63;;;17.60;;
77022;SDS011;65952;51.440;-2.054;2023-02-22T01:17:59;40.80;;;18.00;;
77022;SDS011;65952;51.440;-2.054;2023-02-22T01:20:28;43.95;;;18.02;;
77022;SDS011;65952;51.440;-2.054;2023-02-22T01:22:55;44.17;;;18.55;;
77022;SDS011;65952;51.440;-2.054;2023-02-22T01:25:23;44.45;;;17.45;;
77022;SDS011;65952;51.440;-2.054;2023-02-22T01:27:51;42.70;;;17.85;;
77022;SDS011;65952;51.440;-2.054;2023-02-22T01:30:21;41.33;;;17.77;;
77022;SDS011;65952;51.440;-2.054;2023-02-22T01:32:49;45.03;;;19.02;;
77022;SDS011;65952;51.440;-2.054;2023-02-22T01:35:17;44.20;;;18.23;;
77022;SDS011;65952;51.440;-2.054;2023-02-22T01:37:44;43.75;;;17.85;;
77022;SDS011;65952;51.440;-2.054;2023-02-22T01:40:13;41.88;;;17.42;;
77022;SDS011;65952;51.440;-2.054;2023-02-22T01:42:41;52.47;;;19.65;;
77022;SDS011;65952;51.440;-2.054;2023-02-22T01:48:01;40.28;;;16.80;;
77022;SDS011;65952;51.440;-2.054;2023-02-22T01:50:32;41.95;;;17.90;;
77022;SDS011;65952;51.440;-2.054;2023-02-22T01:53:02;48.10;;;19.27;;
77022;SDS011;65952;51.440;-2.054;2023-02-22T01:55:29;42.95;;;17.65;;
77022;SDS011;65952;51.440;-2.054;2023-02-22T01:57:57;47.20;;;16.98;;
77022;SDS011;65952;51.440;-2.054;2023-02-22T02:00:22;43.13;;;18.35;;
77022;SDS011;65952;51.440;-2.054;2023-02-22T02:02:56;40.35;;;16.95;;
77022;SDS011;65952;51.440;-2.054;2023-02-22T02:05:25;40.70;;;16.83;;
77022;SDS011;65952;51.440;-2.054;2023-02-22T02:07:52;40.53;;;14.55;;
77022;SDS011;65952;51.440;-2.054;2023-02-22T02:10:18;37.83;;;15.00;;
77022;SDS011;65952;51.440;-2.054;2023-02-22T02:12:45;31.48;;;14.00;;
77022;SDS011;65952;51.440;-2.054;2023-02-22T02:17:42;28.17;;;11.98;;
77022;SDS011;65952;51.440;-2.054;2023-02-22T02:20:16;26.77;;;11.63;;
77022;SDS011;65952;51.440;-2.054;2023-02-22T02:36:43;24.90;;;11.32;;
77022;SDS011;65952;51.440;-2.054;2023-02-22T02:39:25;28.48;;;12.52;;
77022;SDS011;65952;51.440;-2.054;2023-02-22T02:41:56;29.20;;;12.35;;
77022;SDS011;65952;51.440;-2.054;2023-02-22T02:44:32;32.85;;;13.57;;
77022;SDS011;65952;51.440;-2.054;2023-02-22T02:47:05;29.05;;;11.77;;
77022;SDS011;65952;51.440;-2.054;2023-02-22T02:52:12;32.75;;;12.82;;
77022;SDS011;65952;51.440;-2.054;2023-02-22T02:54:40;29.52;;;13.57;;
77022;SDS011;65952;51.440;-2.054;2023-02-22T02:57:07;28.95;;;13.23;;
77022;SDS011;65952;51.440;-2.054;2023-02-22T02:59:35;28.77;;;12.65;;
77022;SDS011;65952;51.440;-2.054;2023-02-22T03:07:46;27.98;;;11.48;;
77022;SDS011;65952;51.440;-2.054;2023-02-22T03:13:18;24.00;;;10.15;;
77022;SDS011;65952;51.440;-2.054;2023-02-22T03:18:42;22.65;;;10.02;;
77022;SDS011;65952;51.440;-2.054;2023-02-22T03:26:37;22.50;;;10.30;;
77022;SDS011;65952;51.440;-2.054;2023-02-22T03:29:26;23.50;;;10.77;;
77022;SDS011;65952;51.440;-2.054;2023-02-22T03:34:28;20.40;;;9.52;;
77022;SDS011;65952;51.440;-2.054;2023-02-22T03:39:32;22.23;;;9.73;;
77022;SDS011;65952;51.440;-2.054;2023-02-22T03:42:06;23.55;;;10.05;;
77022;SDS011;65952;51.440;-2.054;2023-02-22T03:44:37;22.98;;;9.65;;
77022;SDS011;65952;51.440;-2.054;2023-02-22T03:47:05;23.55;;;9.63;;
77022;SDS011;65952;51.440;-2.054;2023-02-22T03:49:36;22.00;;;9.00;;
77022;SDS011;65952;51.440;-2.054;2023-02-22T03:52:06;22.45;;;9.00;;
77022;SDS011;65952;51.440;-2.054;2023-02-22T03:54:33;22.42;;;9.15;;
77022;SDS011;65952;51.440;-2.054;2023-02-22T03:57:15;21.17;;;9.35;;
77022;SDS011;65952;51.440;-2.054;2023-02-22T03:59:45;21.60;;;10.18;;
77022;SDS011;65952;51.440;-2.054;2023-02-22T04:02:10;20.35;;;9.35;;
77022;SDS011;65952;51.440;-2.054;2023-02-22T04:04:36;20.50;;;9.48;;
77022;SDS011;65952;51.440;-2.054;2023-02-22T04:07:01;20.60;;;8.80;;
77022;SDS011;65952;51.440;-2.054;2023-02-22T04:09:27;21.88;;;9.52;;
77022;SDS011;65952;51.440;-2.054;2023-02-22T04:11:52;18.02;;;8.88;;
77022;SDS011;65952;51.440;-2.054;2023-02-22T04:14:17;20.88;;;9.57;;
77022;SDS011;65952;51.440;-2.054;2023-02-22T04:16:43;22.30;;;9.82;;
77022;SDS011;65952;51.440;-2.054;2023-02-22T04:19:08;19.13;;;8.75;;
77022;SDS011;65952;51.440;-2.054;2023-02-22T04:21:33;18.23;;;8.88;;
77022;SDS011;65952;51.440;-2.054;2023-02-22T04:23:59;21.73;;;9.93;;
77022;SDS011;65952;51.440;-2.054;2023-02-22T04:26:24;18.23;;;8.30;;
77022;SDS011;65952;51.440;-2.054;2023-02-22T04:28:50;19.50;;;8.75;;
77022;SDS011;65952;51.440;-2.054;2023-02-22T04:31:15;23.08;;;9.15;;
77022;SDS011;65952;51.440;-2.054;2023-02-22T04:33:40;18.77;;;8.38;;
77022;SDS011;65952;51.440;-2.054;2023-02-22T04:36:06;18.30;;;8.35;;
77022;SDS011;65952;51.440;-2.054;2023-02-22T04:38:32;19.38;;;8.93;;
77022;SDS011;65952;51.440;-2.054;2023-02-22T04:40:57;18.77;;;8.88;;
77022;SDS011;65952;51.440;-2.054;2023-02-22T04:43:22;21.15;;;9.27;;
77022;SDS011;65952;51.440;-2.054;2023-02-22T04:45:49;19.75;;;9.40;;
77022;SDS011;65952;51.440;-2.054;2023-02-22T04:48:14;22.58;;;9.35;;
77022;SDS011;65952;51.440;-2.054;2023-02-22T04:50:40;22.65;;;10.48;;
77022;SDS011;65952;51.440;-2.054;2023-02-22T04:53:05;20.05;;;9.13;;
77022;SDS011;65952;51.440;-2.054;2023-02-22T04:55:30;20.50;;;9.60;;
77022;SDS011;65952;51.440;-2.054;2023-02-22T04:57:56;22.17;;;10.68;;
77022;SDS011;65952;51.440;-2.054;2023-02-22T05:00:21;19.40;;;8.57;;
77022;SDS011;65952;51.440;-2.054;2023-02-22T05:02:48;20.58;;;8.75;;
77022;SDS011;65952;51.440;-2.054;2023-02-22T05:05:15;20.55;;;9.15;;
77022;SDS011;65952;51.440;-2.054;2023-02-22T05:07:42;20.20;;;9.93;;
77022;SDS011;65952;51.440;-2.054;2023-02-22T05:10:08;23.25;;;10.18;;
77022;SDS011;65952;51.440;-2.054;2023-02-22T05:12:35;22.23;;;9.85;;
77022;SDS011;65952;51.440;-2.054;2023-02-22T05:15:01;21.63;;;10.18;;
77022;SDS011;65952;51.440;-2.054;2023-02-22T05:17:27;25.65;;;11.27;;
77022;SDS011;65952;51.440;-2.054;2023-02-22T05:19:52;28.05;;;11.40;;
77022;SDS011;65952;51.440;-2.054;2023-02-22T05:22:18;27.27;;;11.80;;
77022;SDS011;65952;51.440;-2.054;2023-02-22T05:24:43;23.85;;;10.65;;
77022;SDS011;65952;51.440;-2.054;2023-02-22T05:27:08;29.45;;;13.35;;
77022;SDS011;65952;51.440;-2.054;2023-02-22T05:29:34;36.28;;;13.40;;
77022;SDS011;65952;51.440;-2.054;2023-02-22T05:31:59;30.92;;;12.77;;
77022;SDS011;65952;51.440;-2.054;2023-02-22T05:34:26;28.40;;;14.00;;
77022;SDS011;65952;51.440;-2.054;2023-02-22T05:36:52;26.67;;;12.25;;
77022;SDS011;65952;51.440;-2.054;2023-02-22T05:39:17;26.85;;;12.30;;
77022;SDS011;65952;51.440;-2.054;2023-02-22T05:41:42;31.25;;;12.68;;
77022;SDS011;65952;51.440;-2.054;2023-02-22T05:44:08;30.67;;;13.63;;
77022;SDS011;65952;51.440;-2.054;2023-02-22T05:46:33;36.70;;;14.60;;
77022;SDS011;65952;51.440;-2.054;2023-02-22T05:48:59;31.80;;;14.70;;
77022;SDS011;65952;51.440;-2.054;2023-02-22T05:51:24;31.42;;;13.98;;
77022;SDS011;65952;51.440;-2.054;2023-02-22T05:53:49;35.50;;;14.00;;
77022;SDS011;65952;51.440;-2.054;2023-02-22T05:56:26;35.47;;;13.77;;
77022;SDS011;65952;51.440;-2.054;2023-02-22T05:58:54;37.53;;;15.35;;
77022;SDS011;65952;51.440;-2.054;2023-02-22T06:01:20;33.80;;;15.45;;
77022;SDS011;65952;51.440;-2.054;2023-02-22T06:03:46;36.78;;;15.82;;
77022;SDS011;65952;51.440;-2.054;2023-02-22T06:06:13;36.10;;;15.05;;
77022;SDS011;65952;51.440;-2.054;2023-02-22T06:08:39;33.80;;;14.65;;
77022;SDS011;65952;51.440;-2.054;2023-02-22T06:11:04;36.28;;;14.93;;
77022;SDS011;65952;51.440;-2.054;2023-02-22T06:13:30;32.70;;;14.25;;
77022;SDS011;65952;51.440;-2.054;2023-02-22T06:15:55;36.35;;;15.65;;
77022;SDS011;65952;51.440;-2.054;2023-02-22T06:18:20;31.77;;;13.45;;
77022;SDS011;65952;51.440;-2.054;2023-02-22T06:20:46;33.53;;;14.95;;
77022;SDS011;65952;51.440;-2.054;2023-02-22T06:23:11;34.38;;;15.02;;
77022;SDS011;65952;51.440;-2.054;2023-02-22T06:25:36;37.45;;;15.15;;
77022;SDS011;65952;51.440;-2.054;2023-02-22T06:28:02;32.20;;;13.73;;
77022;SDS011;65952;51.440;-2.054;2023-02-22T06:30:28;34.45;;;14.13;;
77022;SDS011;65952;51.440;-2.054;2023-02-22T06:32:54;35.50;;;14.65;;
77022;SDS011;65952;51.440;-2.054;2023-02-22T06:35:20;38.28;;;15.57;;
77022;SDS011;65952;51.440;-2.054;2023-02-22T06:37:46;36.15;;;14.68;;
77022;SDS011;65952;51.440;-2.054;2023-02-22T06:40:11;31.55;;;13.00;;
77022;SDS011;65952;51.440;-2.054;2023-02-22T06:42:37;31.50;;;13.77;;
77022;SDS011;65952;51.440;-2.054;2023-02-22T06:45:03;34.72;;;14.25;;
77022;SDS011;65952;51.440;-2.054;2023-02-22T06:47:29;29.80;;;12.50;;
77022;SDS011;65952;51.440;-2.054;2023-02-22T06:49:54;29.63;;;13.13;;
77022;SDS011;65952;51.440;-2.054;2023-02-22T06:52:21;31.65;;;13.55;;
77022;SDS011;65952;51.440;-2.054;2023-02-22T06:54:47;29.83;;;13.18;;
77022;SDS011;65952;51.440;-2.054;2023-02-22T06:57:13;32.33;;;12.98;;
77022;SDS011;65952;51.440;-2.054;2023-02-22T06:59:38;30.02;;;13.65;;
77022;SDS011;65952;51.440;-2.054;2023-02-22T07:02:03;27.45;;;13.20;;
77022;SDS011;65952;51.440;-2.054;2023-02-22T07:04:29;29.02;;;12.48;;
77022;SDS011;65952;51.440;-2.054;2023-02-22T07:06:54;31.48;;;13.63;;
77022;SDS011;65952;51.440;-2.054;2023-02-22T07:09:20;33.72;;;14.05;;
77022;SDS011;65952;51.440;-2.054;2023-02-22T07:11:45;32.95;;;14.45;;
77022;SDS011;65952;51.440;-2.054;2023-02-22T07:14:11;31.73;;;12.95;;
77022;SDS011;65952;51.440;-2.054;2023-02-22T07:16:36;27.65;;;12.55;;
77022;SDS011;65952;51.440;-2.054;2023-02-22T07:19:02;29.85;;;12.57;;
77022;SDS011;65952;51.440;-2.054;2023-02-22T07:21:27;29.77;;;12.50;;
77022;SDS011;65952;51.440;-2.054;2023-02-22T07:23:54;28.70;;;12.38;;
77022;SDS011;65952;51.440;-2.054;2023-02-22T07:26:21;35.25;;;13.68;;
77022;SDS011;65952;51.440;-2.054;2023-02-22T07:28:47;26.40;;;11.73;;
77022;SDS011;65952;51.440;-2.054;2023-02-22T07:31:14;29.92;;;12.15;;
77022;SDS011;65952;51.440;-2.054;2023-02-22T07:33:40;29.48;;;11.93;;
77022;SDS011;65952;51.440;-2.054;2023-02-22T07:36:05;30.63;;;12.75;;
77022;SDS011;65952;51.440;-2.054;2023-02-22T07:38:31;33.22;;;12.80;;
77022;SDS011;65952;51.440;-2.054;2023-02-22T07:40:57;30.27;;;13.27;;
77022;SDS011;65952;51.440;-2.054;2023-02-22T07:43:23;33.25;;;12.80;;
77022;SDS011;65952;51.440;-2.054;2023-02-22T07:45:51;30.70;;;13.30;;
77022;SDS011;65952;51.440;-2.054;2023-02-22T07:48:21;30.55;;;12.60;;
77022;SDS011;65952;51.440;-2.054;2023-02-22T07:50:47;29.20;;;12.18;;
77022;SDS011;65952;51.440;-2.054;2023-02-22T07:53:17;32.65;;;11.98;;
77022;SDS011;65952;51.440;-2.054;2023-02-22T07:55:45;29.25;;;13.65;;
77022;SDS011;65952;51.440;-2.054;2023-02-22T07:58:14;29.60;;;13.02;;
77022;SDS011;65952;51.440;-2.054;2023-02-22T08:00:41;32.50;;;13.00;;
77022;SDS011;65952;51.440;-2.054;2023-02-22T08:03:12;30.50;;;12.07;;
77022;SDS011;65952;51.440;-2.054;2023-02-22T08:05:40;28.02;;;12.30;;
77022;SDS011;65952;51.440;-2.054;2023-02-22T08:08:07;28.50;;;11.90;;
77022;SDS011;65952;51.440;-2.054;2023-02-22T08:10:33;23.25;;;11.57;;
77022;SDS011;65952;51.440;-2.054;2023-02-22T08:12:59;28.42;;;12.43;;
77022;SDS011;65952;51.440;-2.054;2023-02-22T08:15:26;32.85;;;12.45;;
77022;SDS011;65952;51.440;-2.054;2023-02-22T08:17:55;27.08;;;12.20;;
77022;SDS011;65952;51.440;-2.054;2023-02-22T08:20:21;29.20;;;11.75;;
77022;SDS011;65952;51.440;-2.054;2023-02-22T08:22:47;28.92;;;12.43;;
77022;SDS011;65952;51.440;-2.054;2023-02-22T08:25:13;27.58;;;11.98;;
77022;SDS011;65952;51.440;-2.054;2023-02-22T08:27:41;27.45;;;11.85;;
77022;SDS011;65952;51.440;-2.054;2023-02-22T08:30:08;23.90;;;9.48;;
77022;SDS011;65952;51.440;-2.054;2023-02-22T08:32:37;22.30;;;10.88;;
77022;SDS011;65952;51.440;-2.054;2023-02-22T08:35:02;21.00;;;9.13;;
77022;SDS011;65952;51.440;-2.054;2023-02-22T08:37:28;22.42;;;10.05;;
77022;SDS011;65952;51.440;-2.054;2023-02-22T08:39:53;22.98;;;9.95;;
77022;SDS011;65952;51.440;-2.054;2023-02-22T08:42:20;21.40;;;9.48;;
77022;SDS011;65952;51.440;-2.054;2023-02-22T08:44:45;21.48;;;9.52;;
77022;SDS011;65952;51.440;-2.054;2023-02-22T08:47:11;22.05;;;9.18;;
77022;SDS011;65952;51.440;-2.054;2023-02-22T08:49:36;21.35;;;9.35;;
77022;SDS011;65952;51.440;-2.054;2023-02-22T08:52:01;23.73;;;8.90;;
77022;SDS011;65952;51.440;-2.054;2023-02-22T08:54:27;19.50;;;8.48;;
77022;SDS011;65952;51.440;-2.054;2023-02-22T08:56:53;18.38;;;8.43;;
77022;SDS011;65952;51.440;-2.054;2023-02-22T08:59:18;20.48;;;8.98;;
77022;SDS011;65952;51.440;-2.054;2023-02-22T09:01:44;17.70;;;7.68;;
77022;SDS011;65952;51.440;-2.054;2023-02-22T09:04:09;17.95;;;7.72;;
77022;SDS011;65952;51.440;-2.054;2023-02-22T09:06:34;17.42;;;8.40;;
77022;SDS011;65952;51.440;-2.054;2023-02-22T09:09:00;15.18;;;7.07;;
77022;SDS011;65952;51.440;-2.054;2023-02-22T09:11:26;16.58;;;7.45;;
77022;SDS011;65952;51.440;-2.054;2023-02-22T09:13:51;16.98;;;7.10;;
77022;SDS011;65952;51.440;-2.054;2023-02-22T09:16:17;16.08;;;7.35;;
77022;SDS011;65952;51.440;-2.054;2023-02-22T09:18:42;15.75;;;7.20;;
77022;SDS011;65952;51.440;-2.054;2023-02-22T09:21:07;17.15;;;6.60;;
77022;SDS011;65952;51.440;-2.054;2023-02-22T09:23:33;13.77;;;6.60;;
77022;SDS011;65952;51.440;-2.054;2023-02-22T09:25:58;13.73;;;6.70;;
77022;SDS011;65952;51.440;-2.054;2023-02-22T09:28:24;15.20;;;7.32;;
77022;SDS011;65952;51.440;-2.054;2023-02-22T09:30:51;13.85;;;6.25;;
77022;SDS011;65952;51.440;-2.054;2023-02-22T09:33:17;14.63;;;6.70;;
77022;SDS011;65952;51.440;-2.054;2023-02-22T09:35:44;12.45;;;6.30;;
77022;SDS011;65952;51.440;-2.054;2023-02-22T09:38:11;12.65;;;6.63;;
77022;SDS011;65952;51.440;-2.054;2023-02-22T09:40:41;12.98;;;6.22;;
77022;SDS011;65952;51.440;-2.054;2023-02-22T09:48:48;14.50;;;6.72;;
77022;SDS011;65952;51.440;-2.054;2023-02-22T09:51:16;12.48;;;6.60;;
77022;SDS011;65952;51.440;-2.054;2023-02-22T09:53:44;12.65;;;6.43;;
77022;SDS011;65952;51.440;-2.054;2023-02-22T09:56:14;13.40;;;6.57;;
77022;SDS011;65952;51.440;-2.054;2023-02-22T09:58:45;13.60;;;5.95;;
77022;SDS011;65952;51.440;-2.054;2023-02-22T10:01:30;11.48;;;5.72;;
77022;SDS011;65952;51.440;-2.054;2023-02-22T10:07:34;9.02;;;4.43;;
77022;SDS011;65952;51.440;-2.054;2023-02-22T10:10:05;8.48;;;3.90;;
77022;SDS011;65952;51.440;-2.054;2023-02-22T10:21:00;7.40;;;3.50;;
77022;SDS011;65952;51.440;-2.054;2023-02-22T10:23:37;7.60;;;3.53;;
77022;SDS011;65952;51.440;-2.054;2023-02-22T10:26:31;6.43;;;3.17;;
77022;SDS011;65952;51.440;-2.054;2023-02-22T10:29:05;5.90;;;3.30;;
77022;SDS011;65952;51.440;-2.054;2023-02-22T10:31:42;6.45;;;3.30;;
77022;SDS011;65952;51.440;-2.054;2023-02-22T10:34:21;6.40;;;3.30;;
77022;SDS011;65952;51.440;-2.054;2023-02-22T10:36:50;6.38;;;2.80;;
77022;SDS011;65952;51.440;-2.054;2023-02-22T10:41:54;5.22;;;2.50;;
77022;SDS011;65952;51.440;-2.054;2023-02-22T10:44:22;4.63;;;2.28;;
77022;SDS011;65952;51.440;-2.054;2023-02-22T10:46:47;4.32;;;1.70;;
77022;SDS011;65952;51.440;-2.054;2023-02-22T10:49:18;3.10;;;1.60;;
77022;SDS011;65952;51.440;-2.054;2023-02-22T10:52:09;2.03;;;1.20;;
77022;SDS011;65952;51.440;-2.054;2023-02-22T10:54:41;2.78;;;1.40;;
77022;SDS011;65952;51.440;-2.054;2023-02-22T10:57:10;2.22;;;1.20;;
77022;SDS011;65952;51.440;-2.054;2023-02-22T10:59:38;3.05;;;1.40;;
77022;SDS011;65952;51.440;-2.054;2023-02-22T11:02:18;2.70;;;1.30;;
77022;SDS011;65952;51.440;-2.054;2023-02-22T11:10:01;2.05;;;1.30;;
77022;SDS011;65952;51.440;-2.054;2023-02-22T11:12:35;2.20;;;1.10;;
77022;SDS011;65952;51.440;-2.054;2023-02-22T11:17:43;2.30;;;1.00;;
77022;SDS011;65952;51.440;-2.054;2023-02-22T11:20:24;4.07;;;1.10;;
77022;SDS011;65952;51.440;-2.054;2023-02-22T11:22:52;1.17;;;1.00;;
77022;SDS011;65952;51.440;-2.054;2023-02-22T11:25:20;1.33;;;0.95;;
77022;SDS011;65952;51.440;-2.054;2023-02-22T11:27:50;1.42;;;1.10;;
77022;SDS011;65952;51.440;-2.054;2023-02-22T11:30:18;2.47;;;1.30;;
77022;SDS011;65952;51.440;-2.054;2023-02-22T11:32:55;1.83;;;1.10;;
77022;SDS011;65952;51.440;-2.054;2023-02-22T11:37:53;2.88;;;1.10;;
77022;SDS011;65952;51.440;-2.054;2023-02-22T11:40:33;1.63;;;1.00;;
77022;SDS011;65952;51.440;-2.054;2023-02-22T11:43:12;1.25;;;1.00;;
77022;SDS011;65952;51.440;-2.054;2023-02-22T11:45:54;1.23;;;0.98;;
77022;SDS011;65952;51.440;-2.054;2023-02-22T11:48:31;1.77;;;1.10;;
77022;SDS011;65952;51.440;-2.054;2023-02-22T11:51:21;2.38;;;1.10;;
77022;SDS011;65952;51.440;-2.054;2023-02-22T11:54:03;1.38;;;1.00;;
77022;SDS011;65952;51.440;-2.054;2023-02-22T11:56:52;1.85;;;1.10;;
77022;SDS011;65952;51.440;-2.054;2023-02-22T12:00:03;2.17;;;0.90;;
77022;SDS011;65952;51.440;-2.054;2023-02-22T12:18:25;1.50;;;1.08;;
77022;SDS011;65952;51.440;-2.054;2023-02-22T12:20:59;1.00;;;0.82;;
77022;SDS011;65952;51.440;-2.054;2023-02-22T12:26:07;1.38;;;0.88;;
77022;SDS011;65952;51.440;-2.054;2023-02-22T12:31:24;3.00;;;1.25;;
77022;SDS011;65952;51.440;-2.054;2023-02-22T12:36:43;1.05;;;0.80;;
77022;SDS011;65952;51.440;-2.054;2023-02-22T12:42:03;3.75;;;1.17;;
77022;SDS011;65952;51.440;-2.054;2023-02-22T12:44:38;2.08;;;1.30;;
77022;SDS011;65952;51.440;-2.054;2023-02-22T12:47:05;1.60;;;1.00;;
77022;SDS011;65952;51.440;-2.054;2023-02-22T12:52:13;1.98;;;1.02;;
77022;SDS011;65952;51.440;-2.054;2023-02-22T12:55:03;2.65;;;1.02;;
77022;SDS011;65952;51.440;-2.054;2023-02-22T13:06:08;1.08;;;0.80;;
77022;SDS011;65952;51.440;-2.054;2023-02-22T13:11:52;2.28;;;0.98;;
77022;SDS011;65952;51.440;-2.054;2023-02-22T13:17:00;0.60;;;0.60;;
77022;SDS011;65952;51.440;-2.054;2023-02-22T13:30:37;2.88;;;1.10;;
77022;SDS011;65952;51.440;-2.054;2023-02-22T13:36:09;3.92;;;1.13;;
77022;SDS011;65952;51.440;-2.054;2023-02-22T13:41:37;2.13;;;1.10;;
77022;SDS011;65952;51.440;-2.054;2023-02-22T13:52:10;4.03;;;1.30;;
77022;SDS011;65952;51.440;-2.054;2023-02-22T13:54:45;3.03;;;1.08;;
77022;SDS011;65952;51.440;-2.054;2023-02-22T14:00:37;2.65;;;1.30;;
77022;SDS011;65952;51.440;-2.054;2023-02-22T14:08:06;4.85;;;1.30;;
77022;SDS011;65952;51.440;-2.054;2023-02-22T14:10:45;2.53;;;1.42;;
77022;SDS011;65952;51.440;-2.054;2023-02-22T14:13:13;2.40;;;1.20;;
77022;SDS011;65952;51.440;-2.054;2023-02-22T14:21:11;0.68;;;0.68;;
77022;SDS011;65952;51.440;-2.054;2023-02-22T14:26:36;0.85;;;0.70;;
77022;SDS011;65952;51.440;-2.054;2023-02-22T14:31:55;0.77;;;0.77;;
77022;SDS011;65952;51.440;-2.054;2023-02-22T14:42:17;1.35;;;0.90;;
77022;SDS011;65952;51.440;-2.054;2023-02-22T14:45:02;1.17;;;0.90;;
77022;SDS011;65952;51.440;-2.054;2023-02-22T14:47:54;1.05;;;0.95;;
77022;SDS011;65952;51.440;-2.054;2023-02-22T14:53:04;1.70;;;1.00;;
77022;SDS011;65952;51.440;-2.054;2023-02-22T14:55:38;1.95;;;1.00;;
77022;SDS011;65952;51.440;-2.054;2023-02-22T14:58:28;2.05;;;1.10;;
77022;SDS011;65952;51.440;-2.054;2023-02-22T15:01:14;1.75;;;1.10;;
77022;SDS011;65952;51.440;-2.054;2023-02-22T15:06:24;1.58;;;1.00;;
77022;SDS011;65952;51.440;-2.054;2023-02-22T15:09:06;0.95;;;0.90;;
77022;SDS011;65952;51.440;-2.054;2023-02-22T15:11:51;1.83;;;1.20;;
77022;SDS011;65952;51.440;-2.054;2023-02-22T15:14:29;1.17;;;1.02;;
77022;SDS011;65952;51.440;-2.054;2023-02-22T15:17:01;1.90;;;1.30;;
77022;SDS011;65952;51.440;-2.054;2023-02-22T15:19:32;1.63;;;1.10;;
77022;SDS011;65952;51.440;-2.054;2023-02-22T15:22:01;2.03;;;1.05;;
77022;SDS011;65952;51.440;-2.054;2023-02-22T15:24:29;1.15;;;1.05;;
77022;SDS011;65952;51.440;-2.054;2023-02-22T15:27:11;1.02;;;0.93;;
77022;SDS011;65952;51.440;-2.054;2023-02-22T15:29:42;1.00;;;0.90;;
77022;SDS011;65952;51.440;-2.054;2023-02-22T15:32:19;2.15;;;1.13;;
77022;SDS011;65952;51.440;-2.054;2023-02-22T15:34:54;1.23;;;1.10;;
77022;SDS011;65952;51.440;-2.054;2023-02-22T15:37:24;2.50;;;1.42;;
77022;SDS011;65952;51.440;-2.054;2023-02-22T15:39:52;2.20;;;1.30;;
77022;SDS011;65952;51.440;-2.054;2023-02-22T15:42:24;3.10;;;1.60;;
77022;SDS011;65952;51.440;-2.054;2023-02-22T15:44:51;1.08;;;0.95;;
77022;SDS011;65952;51.440;-2.054;2023-02-22T15:47:19;0.90;;;0.90;;
77022;SDS011;65952;51.440;-2.054;2023-02-22T15:52:42;0.85;;;0.85;;
77022;SDS011;65952;51.440;-2.054;2023-02-22T15:57:40;1.60;;;1.20;;
77022;SDS011;65952;51.440;-2.054;2023-02-22T16:00:05;1.73;;;1.20;;
77022;SDS011;65952;51.440;-2.054;2023-02-22T16:02:36;2.47;;;1.40;;
77022;SDS011;65952;51.440;-2.054;2023-02-22T16:05:07;4.18;;;1.60;;
77022;SDS011;65952;51.440;-2.054;2023-02-22T16:07:38;2.95;;;1.65;;
77022;SDS011;65952;51.440;-2.054;2023-02-22T16:10:19;3.22;;;1.60;;
77022;SDS011;65952;51.440;-2.054;2023-02-22T16:12:48;3.83;;;1.50;;
77022;SDS011;65952;51.440;-2.054;2023-02-22T16:15:14;3.50;;;1.63;;
77022;SDS011;65952;51.440;-2.054;2023-02-22T16:17:43;3.10;;;1.60;;
77022;SDS011;65952;51.440;-2.054;2023-02-22T16:22:44;3.05;;;1.50;;
77022;SDS011;65952;51.440;-2.054;2023-02-22T16:27:49;3.53;;;1.45;;
77022;SDS011;65952;51.440;-2.054;2023-02-22T16:32:42;2.47;;;1.40;;
77022;SDS011;65952;51.440;-2.054;2023-02-22T16:35:08;6.72;;;2.40;;
77022;SDS011;65952;51.440;-2.054;2023-02-22T16:37:42;3.63;;;1.58;;
77022;SDS011;65952;51.440;-2.054;2023-02-22T16:40:13;3.15;;;1.65;;
77022;SDS011;65952;51.440;-2.054;2023-02-22T16:42:46;2.47;;;1.40;;
77022;SDS011;65952;51.440;-2.054;2023-02-22T16:45:15;1.52;;;1.20;;
77022;SDS011;65952;51.440;-2.054;2023-02-22T16:47:41;2.20;;;1.40;;
77022;SDS011;65952;51.440;-2.054;2023-02-22T16:50:07;3.88;;;1.60;;
77022;SDS011;65952;51.440;-2.054;2023-02-22T16:52:32;2.97;;;1.70;;
77022;SDS011;65952;51.440;-2.054;2023-02-22T16:54:58;3.03;;;1.60;;
77022;SDS011;65952;51.440;-2.054;2023-02-22T16:57:25;2.92;;;1.60;;
77022;SDS011;65952;51.440;-2.054;2023-02-22T16:59:52;4.57;;;1.90;;
77022;SDS011;65952;51.440;-2.054;2023-02-22T17:02:19;3.00;;;1.60;;
77022;SDS011;65952;51.440;-2.054;2023-02-22T17:04:45;5.05;;;1.90;;
77022;SDS011;65952;51.440;-2.054;2023-02-22T17:07:17;3.78;;;1.90;;
77022;SDS011;65952;51.440;-2.054;2023-02-22T17:09:44;4.05;;;1.80;;
77022;SDS011;65952;51.440;-2.054;2023-02-22T17:12:10;4.18;;;1.75;;
77022;SDS011;65952;51.440;-2.054;2023-02-22T17:14:36;4.40;;;1.80;;
77022;SDS011;65952;51.440;-2.054;2023-02-22T17:17:01;3.22;;;1.70;;
77022;SDS011;65952;51.440;-2.054;2023-02-22T17:19:27;3.83;;;1.60;;
77022;SDS011;65952;51.440;-2.054;2023-02-22T17:21:53;3.15;;;1.60;;
77022;SDS011;65952;51.440;-2.054;2023-02-22T17:24:19;3.83;;;1.70;;
77022;SDS011;65952;51.440;-2.054;2023-02-22T17:26:47;3.67;;;1.90;;
77022;SDS011;65952;51.440;-2.054;2023-02-22T17:29:13;2.85;;;1.70;;
77022;SDS011;65952;51.440;-2.054;2023-02-22T17:31:39;4.50;;;1.88;;
77022;SDS011;65952;51.440;-2.054;2023-02-22T17:34:05;3.63;;;1.80;;
77022;SDS011;65952;51.440;-2.054;2023-02-22T17:36:31;4.07;;;1.70;;
77022;SDS011;65952;51.440;-2.054;2023-02-22T17:38:58;2.90;;;1.45;;
77022;SDS011;65952;51.440;-2.054;2023-02-22T17:41:24;2.88;;;1.60;;